KSAA

Details ICAO KSAA (SAA)
Name SHIVELY FLD
Region United States
Timezone America/Denver (UTC-6.0)
Plans Departing 5
Arriving 6
Stats Elevation 7,012 ft / 2,137 m (AMSL)
Location 41.443547° -106.827452°
Runways 1
Magnetic Variation 9.269° E
Sunrise 2018-05-26 11:40:46 UTC / 2018-05-26 05:40:46 Local
Sunset 2018-05-27 02:30:52 UTC / 2018-05-26 20:30:52 Local
Advertisement - Login to hide

Runways

ID Width Length Bearing (true) Bearing (mag) Surface Threshold Offset Overrun Length
05 98 ft / 30 m 9,135 ft / 2,785 m 65.90° 56.63° Asphalt 161 ft / 49 m 0 ft / 0 m
23 98 ft / 30 m 9,135 ft / 2,785 m 245.92° 236.65° Asphalt 197 ft / 60 m 0 ft / 0 m

Map

Weather


0- 5 10 15 20 25 30 35+ Temperature / ° C

Clouds and Precipitation
Forecast for 2018-05-26 12:00 UTC. Updated 4 hours ago

Ground ~20,000 ft ~40,000 ft Winds

METAR

KSAA 261435Z AUTO 12017KT 10SM CLR 20/M05 A3007 RMK AO2

TAF

Not found

Frequencies

Recorded 118.17 MHz AWOS 3
Unicom 122.80 MHz CTAF/UNICOM
Warning: Do not use this data for real-world aviation or navigation. No guarantee of current accuracy is given.